»·PEaware :: N9BR KLAX-KSNA

N9BR :: KLAX-KSNA

FLIGHT INFORMATION

Flight Status: Arrived
Operator: Privately registered:
United States
More flights under this callsign
Pilot: John H. (7647)
Aircraft: MOONEY M-20 201 202 205 220 ATS MSE
(M20P)
More flights by this aircraft type
Origin: KLAX Los Angeles Intl
United States
Destination: KSNA John Wayne-Orange Co
United States
More flights between these airports :: More routes between these airports
Route: SLI8 SLI
File this flight plan on PilotEdge
Remarks: I-6 Rating
Altitude:
(Current/Filed)
4,000ft
Speed:
(Current/Filed)
170kts
Departed: 01-Oct-18 08:58 AM
Arrived: 01-Oct-18 09:28 AM
Distance/Time
Traveled:
31nm/0:30
Distance/Time
To Go:
Arrived

Flight Plot

Page will automatically refresh every two minutes.

Flight plan parsing failed; only flown route is shown


Map Options




Map Legend


Flown Route
Filed Route
Departure Airport
Arrival Airport
Navaid (VOR, NDB)
Fix

Horizontal Profiles

Position Reports

Time Latitude Longitude Heading Altitude Ground
Speed
01-Oct-18 08:27 33.934140 -118.395574 175 107ft 0kts
01-Oct-18 08:28 33.934140 -118.395574 175 107ft 0kts
01-Oct-18 08:29 33.934140 -118.395574 175 107ft 0kts
01-Oct-18 08:30 33.934140 -118.395574 175 107ft 0kts
01-Oct-18 08:31 33.934140 -118.395574 175 107ft 0kts
01-Oct-18 08:32 33.934140 -118.395574 175 107ft 0kts
01-Oct-18 08:33 33.934140 -118.395574 175 107ft 0kts
01-Oct-18 08:34 33.934140 -118.395574 175 107ft 0kts
01-Oct-18 08:35 33.934140 -118.395574 175 107ft 0kts
01-Oct-18 08:36 33.934140 -118.395574 175 107ft 0kts
01-Oct-18 08:37 33.934140 -118.395574 175 107ft 0kts
01-Oct-18 08:38 33.934140 -118.395574 175 107ft 0kts
01-Oct-18 08:39 33.934140 -118.395574 175 107ft 0kts
01-Oct-18 08:40 33.934140 -118.395574 175 107ft 0kts
01-Oct-18 08:41 33.934140 -118.395574 175 107ft 0kts
01-Oct-18 08:42 33.934140 -118.395574 175 107ft 0kts
01-Oct-18 08:43 33.934140 -118.395574 175 107ft 0kts
01-Oct-18 08:44 33.934140 -118.395574 175 107ft 0kts
01-Oct-18 08:45 33.934140 -118.395574 175 107ft 0kts
01-Oct-18 08:46 33.934140 -118.395574 175 107ft 0kts
01-Oct-18 08:47 33.934140 -118.395574 175 107ft 0kts
01-Oct-18 08:48 33.934140 -118.395574 175 107ft 0kts
01-Oct-18 08:49 33.934140 -118.395574 175 107ft 0kts
01-Oct-18 08:50 33.934140 -118.395574 175 107ft 0kts
01-Oct-18 08:51 33.934140 -118.395574 175 107ft 0kts
01-Oct-18 08:52 33.934140 -118.395574 175 107ft 0kts
01-Oct-18 08:53 33.934108 -118.395356 33 107ft 0kts
01-Oct-18 08:54 33.934124 -118.395343 33 107ft 1kts
01-Oct-18 08:55 33.935113 -118.392268 68 104ft 11kts
01-Oct-18 08:56 33.935555 -118.388568 80 100ft 9kts
01-Oct-18 08:57 33.935924 -118.384882 82 97ft 13kts
01-Oct-18 08:58 33.936517 -118.382793 3 97ft 0kts
01-Oct-18 08:59 33.936518 -118.382793 3 97ft 0kts
01-Oct-18 09:00 33.936144 -118.393709 265 230ft 98kts
01-Oct-18 09:01 33.930713 -118.437921 262 1234ft 143kts
01-Oct-18 09:02 33.899917 -118.467469 212 2532ft 148kts
01-Oct-18 09:03 33.864141 -118.493167 212 3799ft 151kts
01-Oct-18 09:04 33.824305 -118.521893 208 3979ft 188kts
01-Oct-18 09:05 33.791004 -118.483311 111 3976ft 195kts
01-Oct-18 09:06 33.787127 -118.419208 87 3985ft 195kts
01-Oct-18 09:07 33.787419 -118.354751 90 3979ft 191kts
01-Oct-18 09:08 33.786730 -118.291542 90 3987ft 190kts
01-Oct-18 09:09 33.785975 -118.228046 90 3990ft 190kts
01-Oct-18 09:10 33.785145 -118.164883 89 3986ft 189kts
01-Oct-18 09:11 33.784307 -118.101599 89 3986ft 188kts
01-Oct-18 09:12 33.785457 -118.040055 66 3984ft 187kts
01-Oct-18 09:13 33.809992 -117.985299 61 3985ft 188kts
01-Oct-18 09:14 33.834004 -117.929081 62 3986ft 190kts
01-Oct-18 09:15 33.857203 -117.872674 63 3995ft 189kts
01-Oct-18 09:16 33.880365 -117.815609 63 3995ft 189kts
01-Oct-18 09:17 33.903216 -117.758902 63 4022ft 189kts
01-Oct-18 09:18 33.928485 -117.703940 34 3961ft 187kts
01-Oct-18 09:19 33.974163 -117.674737 18 3521ft 180kts
01-Oct-18 09:20 33.983760 -117.708760 195 3518ft 167kts
01-Oct-18 09:21 33.938575 -117.703978 194 3518ft 165kts
01-Oct-18 09:22 33.896947 -117.728085 207 3424ft 169kts
01-Oct-18 09:23 33.855952 -117.754040 207 3422ft 165kts
01-Oct-18 09:24 33.813840 -117.780910 207 3045ft 179kts
01-Oct-18 09:25 33.769881 -117.808995 209 2231ft 168kts
01-Oct-18 09:26 33.738228 -117.829133 209 1307ft 98kts
01-Oct-18 09:27 33.720377 -117.840419 212 946ft 67kts
01-Oct-18 09:28 33.703668 -117.851053 211 584ft 69kts
01-Oct-18 09:29 33.686381 -117.862029 211 206ft 72kts
01-Oct-18 09:30 33.675801 -117.869413 285 58ft 11kts
01-Oct-18 09:31 33.676007 -117.869919 294 58ft 9kts
01-Oct-18 09:32 33.676064 -117.871086 214 58ft 0kts

Navigation Log

Ident Type
Flight plan parsing failed, navigation log unavailable